sensor_id;sensor_type;location;lat;lon;timestamp;P1;durP1;ratioP1;P2;durP2;ratioP2
45388;SDS011;31127;52.078;4.370;2024-03-22T00:01:11;61.78;;;27.00;;
45388;SDS011;31127;52.078;4.370;2024-03-22T00:06:06;55.95;;;26.33;;
45388;SDS011;31127;52.078;4.370;2024-03-22T00:11:02;53.42;;;24.52;;
45388;SDS011;31127;52.078;4.370;2024-03-22T00:15:58;53.78;;;25.13;;
45388;SDS011;31127;52.078;4.370;2024-03-22T00:20:54;57.08;;;25.05;;
45388;SDS011;31127;52.078;4.370;2024-03-22T00:25:49;54.95;;;23.60;;
45388;SDS011;31127;52.078;4.370;2024-03-22T00:30:45;62.58;;;27.13;;
45388;SDS011;31127;52.078;4.370;2024-03-22T00:35:41;59.63;;;27.23;;
45388;SDS011;31127;52.078;4.370;2024-03-22T00:40:37;79.25;;;28.85;;
45388;SDS011;31127;52.078;4.370;2024-03-22T00:45:52;62.38;;;29.25;;
45388;SDS011;31127;52.078;4.370;2024-03-22T00:50:48;65.97;;;27.83;;
45388;SDS011;31127;52.078;4.370;2024-03-22T00:55:43;76.32;;;31.60;;
45388;SDS011;31127;52.078;4.370;2024-03-22T01:00:39;77.85;;;29.58;;
45388;SDS011;31127;52.078;4.370;2024-03-22T01:05:35;71.32;;;31.67;;
45388;SDS011;31127;52.078;4.370;2024-03-22T01:10:32;68.05;;;30.02;;
45388;SDS011;31127;52.078;4.370;2024-03-22T01:15:27;53.33;;;23.90;;
45388;SDS011;31127;52.078;4.370;2024-03-22T01:20:23;44.45;;;22.15;;
45388;SDS011;31127;52.078;4.370;2024-03-22T01:25:19;42.25;;;20.90;;
45388;SDS011;31127;52.078;4.370;2024-03-22T01:30:14;37.83;;;17.38;;
45388;SDS011;31127;52.078;4.370;2024-03-22T01:35:10;26.27;;;15.25;;
45388;SDS011;31127;52.078;4.370;2024-03-22T01:40:07;25.15;;;14.00;;
45388;SDS011;31127;52.078;4.370;2024-03-22T01:45:03;32.13;;;15.23;;
45388;SDS011;31127;52.078;4.370;2024-03-22T01:49:59;30.52;;;15.73;;
45388;SDS011;31127;52.078;4.370;2024-03-22T01:54:55;29.90;;;15.95;;
45388;SDS011;31127;52.078;4.370;2024-03-22T02:00:15;39.67;;;16.45;;
45388;SDS011;31127;52.078;4.370;2024-03-22T02:05:15;30.42;;;15.35;;
45388;SDS011;31127;52.078;4.370;2024-03-22T02:10:11;33.08;;;16.52;;
45388;SDS011;31127;52.078;4.370;2024-03-22T02:15:07;35.55;;;15.38;;
45388;SDS011;31127;52.078;4.370;2024-03-22T02:20:03;28.98;;;12.30;;
45388;SDS011;31127;52.078;4.370;2024-03-22T02:25:00;29.50;;;13.55;;
45388;SDS011;31127;52.078;4.370;2024-03-22T02:29:56;31.08;;;15.15;;
45388;SDS011;31127;52.078;4.370;2024-03-22T02:34:51;33.90;;;14.60;;
45388;SDS011;31127;52.078;4.370;2024-03-22T02:39:47;37.60;;;12.98;;
45388;SDS011;31127;52.078;4.370;2024-03-22T02:44:42;31.83;;;13.23;;
45388;SDS011;31127;52.078;4.370;2024-03-22T02:49:38;26.67;;;12.15;;
45388;SDS011;31127;52.078;4.370;2024-03-22T02:54:34;33.15;;;13.23;;
45388;SDS011;31127;52.078;4.370;2024-03-22T02:59:31;27.95;;;10.90;;
45388;SDS011;31127;52.078;4.370;2024-03-22T03:04:27;30.35;;;10.73;;
45388;SDS011;31127;52.078;4.370;2024-03-22T03:09:38;32.95;;;11.15;;
45388;SDS011;31127;52.078;4.370;2024-03-22T03:14:34;33.20;;;10.52;;
45388;SDS011;31127;52.078;4.370;2024-03-22T03:19:29;28.30;;;9.07;;
45388;SDS011;31127;52.078;4.370;2024-03-22T03:24:25;29.02;;;9.68;;
45388;SDS011;31127;52.078;4.370;2024-03-22T03:29:20;28.55;;;9.95;;
45388;SDS011;31127;52.078;4.370;2024-03-22T03:34:16;23.10;;;8.87;;
45388;SDS011;31127;52.078;4.370;2024-03-22T03:39:31;30.15;;;8.77;;
45388;SDS011;31127;52.078;4.370;2024-03-22T03:44:26;30.30;;;9.98;;
45388;SDS011;31127;52.078;4.370;2024-03-22T03:49:45;39.33;;;9.48;;
45388;SDS011;31127;52.078;4.370;2024-03-22T03:54:41;32.00;;;8.73;;
45388;SDS011;31127;52.078;4.370;2024-03-22T03:59:36;30.27;;;8.27;;
45388;SDS011;31127;52.078;4.370;2024-03-22T04:04:32;28.30;;;10.30;;
45388;SDS011;31127;52.078;4.370;2024-03-22T04:09:47;41.22;;;9.35;;
45388;SDS011;31127;52.078;4.370;2024-03-22T04:15:03;33.58;;;10.95;;
45388;SDS011;31127;52.078;4.370;2024-03-22T04:19:58;34.53;;;10.18;;
45388;SDS011;31127;52.078;4.370;2024-03-22T04:24:54;33.10;;;11.60;;
45388;SDS011;31127;52.078;4.370;2024-03-22T04:29:49;40.70;;;12.13;;
45388;SDS011;31127;52.078;4.370;2024-03-22T04:34:45;41.30;;;10.52;;
45388;SDS011;31127;52.078;4.370;2024-03-22T04:39:40;42.22;;;11.27;;
45388;SDS011;31127;52.078;4.370;2024-03-22T04:44:36;35.33;;;12.52;;
45388;SDS011;31127;52.078;4.370;2024-03-22T04:49:31;33.83;;;11.93;;
45388;SDS011;31127;52.078;4.370;2024-03-22T04:54:46;37.65;;;13.27;;
45388;SDS011;31127;52.078;4.370;2024-03-22T04:59:42;38.13;;;13.57;;
45388;SDS011;31127;52.078;4.370;2024-03-22T05:04:39;33.38;;;11.00;;
45388;SDS011;31127;52.078;4.370;2024-03-22T05:09:54;33.38;;;11.07;;
45388;SDS011;31127;52.078;4.370;2024-03-22T05:14:50;35.95;;;11.32;;
45388;SDS011;31127;52.078;4.370;2024-03-22T05:19:45;40.63;;;11.27;;
45388;SDS011;31127;52.078;4.370;2024-03-22T05:24:41;27.20;;;9.17;;
45388;SDS011;31127;52.078;4.370;2024-03-22T05:29:36;35.00;;;11.98;;
45388;SDS011;31127;52.078;4.370;2024-03-22T05:34:32;30.77;;;11.20;;
45388;SDS011;31127;52.078;4.370;2024-03-22T05:39:27;28.70;;;11.38;;
45388;SDS011;31127;52.078;4.370;2024-03-22T05:44:23;29.25;;;10.23;;
45388;SDS011;31127;52.078;4.370;2024-03-22T05:49:18;27.80;;;9.93;;
45388;SDS011;31127;52.078;4.370;2024-03-22T05:54:14;37.00;;;12.30;;
45388;SDS011;31127;52.078;4.370;2024-03-22T05:59:09;31.05;;;11.90;;
45388;SDS011;31127;52.078;4.370;2024-03-22T06:04:05;29.77;;;11.20;;
45388;SDS011;31127;52.078;4.370;2024-03-22T06:09:01;29.63;;;11.00;;
45388;SDS011;31127;52.078;4.370;2024-03-22T06:13:59;33.50;;;10.63;;
45388;SDS011;31127;52.078;4.370;2024-03-22T06:18:54;32.08;;;9.43;;
45388;SDS011;31127;52.078;4.370;2024-03-22T06:23:50;27.35;;;8.93;;
45388;SDS011;31127;52.078;4.370;2024-03-22T06:28:45;26.63;;;9.07;;
45388;SDS011;31127;52.078;4.370;2024-03-22T06:33:41;24.20;;;8.75;;
45388;SDS011;31127;52.078;4.370;2024-03-22T06:38:37;33.73;;;9.13;;
45388;SDS011;31127;52.078;4.370;2024-03-22T06:43:33;30.42;;;9.10;;
45388;SDS011;31127;52.078;4.370;2024-03-22T06:48:29;23.73;;;7.80;;
45388;SDS011;31127;52.078;4.370;2024-03-22T06:53:24;27.15;;;7.88;;
45388;SDS011;31127;52.078;4.370;2024-03-22T06:58:20;25.65;;;7.90;;
45388;SDS011;31127;52.078;4.370;2024-03-22T07:03:15;19.38;;;8.27;;
45388;SDS011;31127;52.078;4.370;2024-03-22T07:08:12;28.27;;;8.10;;
45388;SDS011;31127;52.078;4.370;2024-03-22T07:13:08;24.10;;;7.93;;
45388;SDS011;31127;52.078;4.370;2024-03-22T07:18:03;24.90;;;9.60;;
45388;SDS011;31127;52.078;4.370;2024-03-22T07:23:02;24.75;;;7.82;;
45388;SDS011;31127;52.078;4.370;2024-03-22T07:27:59;24.75;;;7.72;;
45388;SDS011;31127;52.078;4.370;2024-03-22T07:32:54;29.63;;;8.00;;
45388;SDS011;31127;52.078;4.370;2024-03-22T07:37:50;32.10;;;8.65;;
45388;SDS011;31127;52.078;4.370;2024-03-22T07:43:05;27.98;;;7.65;;
45388;SDS011;31127;52.078;4.370;2024-03-22T07:48:02;24.25;;;8.48;;
45388;SDS011;31127;52.078;4.370;2024-03-22T07:52:57;23.65;;;7.97;;
45388;SDS011;31127;52.078;4.370;2024-03-22T07:57:53;24.60;;;8.35;;
45388;SDS011;31127;52.078;4.370;2024-03-22T08:02:48;24.38;;;7.72;;
45388;SDS011;31127;52.078;4.370;2024-03-22T08:07:44;28.42;;;8.88;;
45388;SDS011;31127;52.078;4.370;2024-03-22T08:12:40;25.70;;;9.25;;
45388;SDS011;31127;52.078;4.370;2024-03-22T08:17:35;32.45;;;9.98;;
45388;SDS011;31127;52.078;4.370;2024-03-22T08:22:33;30.38;;;10.13;;
45388;SDS011;31127;52.078;4.370;2024-03-22T08:27:46;31.57;;;9.43;;
45388;SDS011;31127;52.078;4.370;2024-03-22T08:32:41;26.38;;;9.65;;
45388;SDS011;31127;52.078;4.370;2024-03-22T08:37:37;23.33;;;8.80;;
45388;SDS011;31127;52.078;4.370;2024-03-22T08:42:32;26.83;;;9.60;;
45388;SDS011;31127;52.078;4.370;2024-03-22T08:47:28;24.33;;;10.40;;
45388;SDS011;31127;52.078;4.370;2024-03-22T08:52:43;31.67;;;9.45;;
45388;SDS011;31127;52.078;4.370;2024-03-22T08:57:39;28.73;;;10.07;;
45388;SDS011;31127;52.078;4.370;2024-03-22T09:02:34;32.20;;;11.13;;
45388;SDS011;31127;52.078;4.370;2024-03-22T09:07:29;24.93;;;9.80;;
45388;SDS011;31127;52.078;4.370;2024-03-22T09:12:25;25.58;;;8.57;;
45388;SDS011;31127;52.078;4.370;2024-03-22T09:17:20;29.52;;;10.85;;
45388;SDS011;31127;52.078;4.370;2024-03-22T09:22:16;30.20;;;11.50;;
45388;SDS011;31127;52.078;4.370;2024-03-22T09:27:31;29.08;;;11.13;;
45388;SDS011;31127;52.078;4.370;2024-03-22T09:32:30;29.77;;;10.85;;
45388;SDS011;31127;52.078;4.370;2024-03-22T09:37:25;29.95;;;10.88;;
45388;SDS011;31127;52.078;4.370;2024-03-22T09:42:22;26.50;;;10.80;;
45388;SDS011;31127;52.078;4.370;2024-03-22T09:47:18;28.35;;;12.82;;
45388;SDS011;31127;52.078;4.370;2024-03-22T09:52:16;31.15;;;13.15;;
45388;SDS011;31127;52.078;4.370;2024-03-22T09:57:14;30.35;;;11.88;;
45388;SDS011;31127;52.078;4.370;2024-03-22T10:02:13;29.92;;;11.20;;
45388;SDS011;31127;52.078;4.370;2024-03-22T10:07:09;24.35;;;11.15;;
45388;SDS011;31127;52.078;4.370;2024-03-22T10:12:05;27.20;;;12.35;;
45388;SDS011;31127;52.078;4.370;2024-03-22T10:17:01;33.55;;;12.57;;
45388;SDS011;31127;52.078;4.370;2024-03-22T10:22:05;31.27;;;14.35;;
45388;SDS011;31127;52.078;4.370;2024-03-22T10:27:00;30.50;;;13.02;;
45388;SDS011;31127;52.078;4.370;2024-03-22T10:31:56;24.48;;;10.55;;
45388;SDS011;31127;52.078;4.370;2024-03-22T10:36:52;32.00;;;12.50;;
45388;SDS011;31127;52.078;4.370;2024-03-22T10:41:48;30.20;;;13.35;;
45388;SDS011;31127;52.078;4.370;2024-03-22T10:46:47;28.52;;;13.65;;
45388;SDS011;31127;52.078;4.370;2024-03-22T10:51:48;38.08;;;13.77;;
45388;SDS011;31127;52.078;4.370;2024-03-22T10:56:44;31.67;;;12.68;;
45388;SDS011;31127;52.078;4.370;2024-03-22T11:01:44;26.52;;;14.48;;
45388;SDS011;31127;52.078;4.370;2024-03-22T11:06:40;36.17;;;14.40;;
45388;SDS011;31127;52.078;4.370;2024-03-22T11:11:35;31.98;;;13.25;;
45388;SDS011;31127;52.078;4.370;2024-03-22T11:16:33;22.40;;;11.45;;
45388;SDS011;31127;52.078;4.370;2024-03-22T11:21:29;27.55;;;11.95;;
45388;SDS011;31127;52.078;4.370;2024-03-22T11:26:29;31.67;;;13.32;;
45388;SDS011;31127;52.078;4.370;2024-03-22T11:31:24;28.88;;;12.15;;
45388;SDS011;31127;52.078;4.370;2024-03-22T11:36:22;24.52;;;10.15;;
45388;SDS011;31127;52.078;4.370;2024-03-22T11:41:23;28.00;;;12.30;;
45388;SDS011;31127;52.078;4.370;2024-03-22T11:46:19;24.58;;;11.48;;
45388;SDS011;31127;52.078;4.370;2024-03-22T11:51:17;16.48;;;9.80;;
45388;SDS011;31127;52.078;4.370;2024-03-22T11:56:13;20.33;;;11.00;;
45388;SDS011;31127;52.078;4.370;2024-03-22T12:01:08;24.92;;;11.10;;
45388;SDS011;31127;52.078;4.370;2024-03-22T12:06:23;21.85;;;11.48;;
45388;SDS011;31127;52.078;4.370;2024-03-22T12:11:19;21.08;;;9.15;;
45388;SDS011;31127;52.078;4.370;2024-03-22T12:16:18;26.33;;;12.60;;
45388;SDS011;31127;52.078;4.370;2024-03-22T12:21:14;23.73;;;12.82;;
45388;SDS011;31127;52.078;4.370;2024-03-22T12:26:09;34.17;;;13.43;;
45388;SDS011;31127;52.078;4.370;2024-03-22T12:31:27;32.63;;;14.82;;
45388;SDS011;31127;52.078;4.370;2024-03-22T12:36:23;32.45;;;14.55;;
45388;SDS011;31127;52.078;4.370;2024-03-22T12:41:19;30.30;;;14.48;;
45388;SDS011;31127;52.078;4.370;2024-03-22T12:46:15;33.50;;;14.63;;
45388;SDS011;31127;52.078;4.370;2024-03-22T12:51:10;37.10;;;14.52;;
45388;SDS011;31127;52.078;4.370;2024-03-22T12:56:06;30.85;;;13.18;;
45388;SDS011;31127;52.078;4.370;2024-03-22T13:01:02;35.88;;;14.32;;
45388;SDS011;31127;52.078;4.370;2024-03-22T13:05:58;21.55;;;10.73;;
45388;SDS011;31127;52.078;4.370;2024-03-22T13:10:53;29.92;;;12.13;;
45388;SDS011;31127;52.078;4.370;2024-03-22T13:15:49;27.55;;;11.85;;
45388;SDS011;31127;52.078;4.370;2024-03-22T13:20:46;32.33;;;13.00;;
45388;SDS011;31127;52.078;4.370;2024-03-22T13:25:42;27.02;;;12.68;;
45388;SDS011;31127;52.078;4.370;2024-03-22T13:30:37;27.13;;;12.47;;
45388;SDS011;31127;52.078;4.370;2024-03-22T13:35:32;24.73;;;13.37;;
45388;SDS011;31127;52.078;4.370;2024-03-22T13:40:28;22.02;;;12.13;;
45388;SDS011;31127;52.078;4.370;2024-03-22T13:45:24;40.17;;;13.80;;
45388;SDS011;31127;52.078;4.370;2024-03-22T13:50:20;24.20;;;13.05;;
45388;SDS011;31127;52.078;4.370;2024-03-22T13:55:17;29.90;;;12.07;;
45388;SDS011;31127;52.078;4.370;2024-03-22T14:00:13;21.13;;;10.30;;
45388;SDS011;31127;52.078;4.370;2024-03-22T14:05:09;26.98;;;13.07;;
45388;SDS011;31127;52.078;4.370;2024-03-22T14:10:05;18.95;;;11.38;;
45388;SDS011;31127;52.078;4.370;2024-03-22T14:15:00;34.70;;;14.07;;
45388;SDS011;31127;52.078;4.370;2024-03-22T14:19:56;32.70;;;13.97;;
45388;SDS011;31127;52.078;4.370;2024-03-22T14:24:51;30.90;;;13.10;;
45388;SDS011;31127;52.078;4.370;2024-03-22T14:29:47;32.30;;;11.48;;
45388;SDS011;31127;52.078;4.370;2024-03-22T14:35:03;26.63;;;13.30;;
45388;SDS011;31127;52.078;4.370;2024-03-22T14:39:58;27.58;;;12.15;;
45388;SDS011;31127;52.078;4.370;2024-03-22T14:44:53;27.58;;;11.35;;
45388;SDS011;31127;52.078;4.370;2024-03-22T14:49:50;26.05;;;11.48;;
45388;SDS011;31127;52.078;4.370;2024-03-22T14:54:46;26.23;;;12.13;;
45388;SDS011;31127;52.078;4.370;2024-03-22T14:59:42;29.30;;;10.43;;
45388;SDS011;31127;52.078;4.370;2024-03-22T15:04:37;24.75;;;8.23;;
45388;SDS011;31127;52.078;4.370;2024-03-22T15:09:33;24.13;;;6.75;;
45388;SDS011;31127;52.078;4.370;2024-03-22T15:14:29;24.80;;;6.20;;
45388;SDS011;31127;52.078;4.370;2024-03-22T15:19:24;27.42;;;6.05;;
45388;SDS011;31127;52.078;4.370;2024-03-22T15:24:20;30.77;;;7.00;;
45388;SDS011;31127;52.078;4.370;2024-03-22T15:29:15;26.08;;;6.25;;
45388;SDS011;31127;52.078;4.370;2024-03-22T15:34:11;33.85;;;6.47;;
45388;SDS011;31127;52.078;4.370;2024-03-22T15:39:07;28.02;;;6.90;;
45388;SDS011;31127;52.078;4.370;2024-03-22T15:44:03;22.95;;;5.93;;
45388;SDS011;31127;52.078;4.370;2024-03-22T15:48:58;23.40;;;5.50;;
45388;SDS011;31127;52.078;4.370;2024-03-22T15:53:54;26.88;;;6.45;;
45388;SDS011;31127;52.078;4.370;2024-03-22T15:58:49;26.10;;;7.10;;
45388;SDS011;31127;52.078;4.370;2024-03-22T16:03:44;25.40;;;5.17;;
45388;SDS011;31127;52.078;4.370;2024-03-22T16:08:40;19.73;;;5.53;;
45388;SDS011;31127;52.078;4.370;2024-03-22T16:13:38;36.50;;;6.93;;
45388;SDS011;31127;52.078;4.370;2024-03-22T16:18:33;29.77;;;6.03;;
45388;SDS011;31127;52.078;4.370;2024-03-22T16:23:32;32.40;;;6.63;;
45388;SDS011;31127;52.078;4.370;2024-03-22T16:28:47;23.15;;;5.88;;
45388;SDS011;31127;52.078;4.370;2024-03-22T16:34:03;22.77;;;5.88;;
45388;SDS011;31127;52.078;4.370;2024-03-22T16:38:58;26.90;;;6.13;;
45388;SDS011;31127;52.078;4.370;2024-03-22T16:43:56;24.80;;;5.47;;
45388;SDS011;31127;52.078;4.370;2024-03-22T16:48:53;29.38;;;5.70;;
45388;SDS011;31127;52.078;4.370;2024-03-22T16:53:48;31.73;;;6.38;;
45388;SDS011;31127;52.078;4.370;2024-03-22T16:58:44;28.52;;;5.28;;
45388;SDS011;31127;52.078;4.370;2024-03-22T17:03:40;37.33;;;6.53;;
45388;SDS011;31127;52.078;4.370;2024-03-22T17:08:37;28.50;;;6.35;;
45388;SDS011;31127;52.078;4.370;2024-03-22T17:13:34;31.48;;;6.20;;
45388;SDS011;31127;52.078;4.370;2024-03-22T17:18:29;27.83;;;5.85;;
45388;SDS011;31127;52.078;4.370;2024-03-22T17:23:28;25.15;;;6.32;;
45388;SDS011;31127;52.078;4.370;2024-03-22T17:28:24;23.83;;;5.95;;
45388;SDS011;31127;52.078;4.370;2024-03-22T17:33:19;33.95;;;6.50;;
45388;SDS011;31127;52.078;4.370;2024-03-22T17:38:15;32.50;;;6.88;;
45388;SDS011;31127;52.078;4.370;2024-03-22T17:43:11;24.90;;;6.07;;
45388;SDS011;31127;52.078;4.370;2024-03-22T17:48:07;32.88;;;6.07;;
45388;SDS011;31127;52.078;4.370;2024-03-22T17:53:03;24.90;;;5.23;;
45388;SDS011;31127;52.078;4.370;2024-03-22T17:57:58;25.42;;;6.35;;
45388;SDS011;31127;52.078;4.370;2024-03-22T18:02:53;31.65;;;6.38;;
45388;SDS011;31127;52.078;4.370;2024-03-22T18:07:49;22.85;;;7.22;;
45388;SDS011;31127;52.078;4.370;2024-03-22T18:12:45;31.52;;;7.28;;
45388;SDS011;31127;52.078;4.370;2024-03-22T18:17:40;28.05;;;7.75;;
45388;SDS011;31127;52.078;4.370;2024-03-22T18:22:36;32.63;;;6.65;;
45388;SDS011;31127;52.078;4.370;2024-03-22T18:27:31;31.35;;;6.72;;
45388;SDS011;31127;52.078;4.370;2024-03-22T18:32:27;23.40;;;6.10;;
45388;SDS011;31127;52.078;4.370;2024-03-22T18:37:22;26.25;;;6.60;;
45388;SDS011;31127;52.078;4.370;2024-03-22T18:42:18;29.00;;;6.78;;
45388;SDS011;31127;52.078;4.370;2024-03-22T18:47:14;26.83;;;5.72;;
45388;SDS011;31127;52.078;4.370;2024-03-22T18:52:10;26.45;;;6.80;;
45388;SDS011;31127;52.078;4.370;2024-03-22T18:57:05;25.25;;;6.43;;
45388;SDS011;31127;52.078;4.370;2024-03-22T19:02:01;25.30;;;5.97;;
45388;SDS011;31127;52.078;4.370;2024-03-22T19:06:59;30.98;;;5.43;;
45388;SDS011;31127;52.078;4.370;2024-03-22T19:11:55;23.50;;;5.75;;
45388;SDS011;31127;52.078;4.370;2024-03-22T19:16:50;28.90;;;5.93;;
45388;SDS011;31127;52.078;4.370;2024-03-22T19:21:46;25.15;;;6.22;;
45388;SDS011;31127;52.078;4.370;2024-03-22T19:26:42;26.15;;;8.55;;
45388;SDS011;31127;52.078;4.370;2024-03-22T19:31:37;28.33;;;7.67;;
45388;SDS011;31127;52.078;4.370;2024-03-22T19:36:34;32.00;;;7.88;;
45388;SDS011;31127;52.078;4.370;2024-03-22T19:41:29;38.28;;;8.70;;
45388;SDS011;31127;52.078;4.370;2024-03-22T19:46:25;26.80;;;6.93;;
45388;SDS011;31127;52.078;4.370;2024-03-22T19:51:21;29.00;;;7.03;;
45388;SDS011;31127;52.078;4.370;2024-03-22T19:56:17;22.52;;;5.93;;
45388;SDS011;31127;52.078;4.370;2024-03-22T20:01:12;25.00;;;7.20;;
45388;SDS011;31127;52.078;4.370;2024-03-22T20:06:08;29.75;;;8.52;;
45388;SDS011;31127;52.078;4.370;2024-03-22T20:11:03;27.52;;;7.25;;
45388;SDS011;31127;52.078;4.370;2024-03-22T20:15:59;27.40;;;7.50;;
45388;SDS011;31127;52.078;4.370;2024-03-22T20:20:54;26.17;;;7.68;;
45388;SDS011;31127;52.078;4.370;2024-03-22T20:25:50;27.38;;;7.70;;
45388;SDS011;31127;52.078;4.370;2024-03-22T20:30:45;25.80;;;7.53;;
45388;SDS011;31127;52.078;4.370;2024-03-22T20:35:41;26.10;;;8.15;;
